createdAt,value
2018-11-13T00:01:44.054Z,22.53
2018-11-13T00:06:49.682Z,22.53
2018-11-13T00:09:17.777Z,22.53
2018-11-13T00:11:45.898Z,22.51
2018-11-13T00:14:14.049Z,22.50
2018-11-13T00:16:42.169Z,22.50
2018-11-13T00:19:10.275Z,22.49
2018-11-13T00:21:38.389Z,22.49
2018-11-13T00:24:06.562Z,22.48
2018-11-13T00:26:34.612Z,22.46
2018-11-13T00:29:02.721Z,22.47
2018-11-13T00:31:30.874Z,22.46
2018-11-13T00:33:58.955Z,22.47
2018-11-13T00:36:27.051Z,22.46
2018-11-13T00:38:55.235Z,22.44
2018-11-13T00:41:23.346Z,22.45
2018-11-13T00:43:51.477Z,22.44
2018-11-13T00:46:19.587Z,22.44
2018-11-13T00:48:47.690Z,22.44
2018-11-13T00:51:15.778Z,22.43
2018-11-13T00:53:43.863Z,22.42
2018-11-13T00:56:11.998Z,22.42
2018-11-13T00:58:40.087Z,22.42
2018-11-13T01:01:08.173Z,22.42
2018-11-13T01:03:36.249Z,22.41
2018-11-13T01:06:04.361Z,22.42
2018-11-13T01:08:32.458Z,22.41
2018-11-13T01:11:00.555Z,22.41
2018-11-13T01:13:29.096Z,22.40
2018-11-13T01:15:56.803Z,22.40
2018-11-13T01:18:24.913Z,22.40
2018-11-13T01:20:53.076Z,22.38
2018-11-13T01:23:21.189Z,22.39
2018-11-13T01:25:49.281Z,22.38
2018-11-13T01:28:17.366Z,22.37
2018-11-13T01:30:45.707Z,22.36
2018-11-13T01:33:13.798Z,22.37
2018-11-13T01:35:41.898Z,22.37
2018-11-13T01:38:09.995Z,22.35
2018-11-13T01:40:38.129Z,22.35
2018-11-13T01:43:06.255Z,22.35
2018-11-13T01:45:34.435Z,22.35
2018-11-13T01:48:02.580Z,22.33
2018-11-13T01:50:30.671Z,22.32
2018-11-13T01:52:58.788Z,22.31
2018-11-13T01:55:26.890Z,22.30
2018-11-13T01:57:55.015Z,22.31
2018-11-13T02:00:23.969Z,22.30
2018-11-13T02:02:53.268Z,22.30
2018-11-13T02:05:22.417Z,22.29
2018-11-13T02:07:50.959Z,22.28
2018-11-13T02:10:19.357Z,22.27
2018-11-13T02:12:48.786Z,22.27
2018-11-13T02:15:17.844Z,22.27
2018-11-13T02:17:45.971Z,22.28
2018-11-13T02:20:15.491Z,22.25
2018-11-13T02:22:43.739Z,22.25
2018-11-13T02:25:13.414Z,22.25
2018-11-13T02:27:42.086Z,22.24
2018-11-13T02:30:12.926Z,22.23
2018-11-13T02:32:41.556Z,22.23
2018-11-13T02:35:10.463Z,22.22
2018-11-13T02:37:38.587Z,22.22
2018-11-13T02:40:06.862Z,22.22
2018-11-13T02:42:36.139Z,22.21
2018-11-13T02:45:05.219Z,22.20
2018-11-13T02:47:33.331Z,22.20
2018-11-13T02:50:01.455Z,22.19
2018-11-13T02:52:29.574Z,22.19
2018-11-13T02:54:57.676Z,22.18
2018-11-13T02:57:25.819Z,22.18
2018-11-13T02:59:53.927Z,22.19
2018-11-13T03:02:22.090Z,22.12
2018-11-13T03:04:50.783Z,22.17
2018-11-13T03:07:18.919Z,22.16
2018-11-13T03:09:47.027Z,22.17
2018-11-13T03:12:15.122Z,22.15
2018-11-13T03:14:43.241Z,22.16
2018-11-13T03:17:11.385Z,22.14
2018-11-13T03:19:39.478Z,22.13
2018-11-13T03:22:07.579Z,22.13
2018-11-13T03:24:35.912Z,22.12
2018-11-13T03:27:04.050Z,22.12
2018-11-13T03:29:32.227Z,22.12
2018-11-13T03:32:00.374Z,22.11
2018-11-13T03:34:28.458Z,22.09
2018-11-13T03:36:56.567Z,22.09
2018-11-13T03:39:24.675Z,22.09
2018-11-13T03:41:52.880Z,22.09
2018-11-13T03:44:21.017Z,22.08
2018-11-13T03:46:49.140Z,22.08
2018-11-13T03:49:17.211Z,22.07
2018-11-13T03:51:45.247Z,22.06
2018-11-13T03:54:13.286Z,22.06
2018-11-13T03:56:41.367Z,22.06
2018-11-13T03:59:09.420Z,22.06
2018-11-13T04:01:37.480Z,22.04
2018-11-13T04:04:11.117Z,22.05
2018-11-13T04:06:39.151Z,22.04
2018-11-13T04:09:09.117Z,22.04
2018-11-13T04:11:37.249Z,22.02
2018-11-13T04:14:05.410Z,22.03
2018-11-13T04:16:33.471Z,22.02
2018-11-13T04:19:01.511Z,22.02
2018-11-13T04:21:29.538Z,22.02
2018-11-13T04:23:57.583Z,22.00
2018-11-13T04:26:25.860Z,21.99
2018-11-13T04:28:53.894Z,21.99
2018-11-13T04:31:21.937Z,21.99
2018-11-13T04:33:50.053Z,21.98
2018-11-13T04:36:18.185Z,21.97
2018-11-13T04:38:46.290Z,21.97
2018-11-13T04:41:14.374Z,21.97
2018-11-13T04:43:42.434Z,21.95
2018-11-13T04:46:10.527Z,21.95
2018-11-13T04:48:38.630Z,21.95
2018-11-13T04:51:06.683Z,21.95
2018-11-13T04:53:34.777Z,21.93
2018-11-13T04:56:02.899Z,21.94
2018-11-13T04:58:30.972Z,21.94
2018-11-13T05:00:59.038Z,21.93
2018-11-13T05:03:27.878Z,21.93
2018-11-13T05:05:56.010Z,21.95
2018-11-13T05:08:24.088Z,21.93
2018-11-13T05:10:52.144Z,21.93
2018-11-13T05:13:20.173Z,21.92
2018-11-13T05:15:48.210Z,21.93
2018-11-13T05:18:16.255Z,21.92
2018-11-13T05:20:44.328Z,21.91
2018-11-13T05:23:12.474Z,21.91
2018-11-13T05:25:40.495Z,21.92
2018-11-13T05:28:08.565Z,21.92
2018-11-13T05:30:36.631Z,21.92
2018-11-13T05:33:04.781Z,21.92
2018-11-13T05:35:32.848Z,21.92
2018-11-13T05:38:00.918Z,21.92
2018-11-13T05:40:28.987Z,21.91
2018-11-13T05:42:57.119Z,21.92
2018-11-13T05:45:26.109Z,21.93
2018-11-13T05:47:54.177Z,21.92
2018-11-13T05:50:22.219Z,21.94
2018-11-13T05:52:51.623Z,21.93
2018-11-13T05:55:19.694Z,21.93
2018-11-13T05:57:47.888Z,21.93
2018-11-13T06:00:17.474Z,21.93
2018-11-13T06:02:45.509Z,21.93
2018-11-13T06:05:13.949Z,21.92
2018-11-13T06:07:42.070Z,21.93
2018-11-13T06:10:11.002Z,21.92
2018-11-13T06:12:39.042Z,21.92
2018-11-13T06:15:07.584Z,21.90
2018-11-13T06:17:35.639Z,21.91
2018-11-13T06:20:03.882Z,21.91
2018-11-13T06:22:32.170Z,21.89
2018-11-13T06:25:00.247Z,21.89
2018-11-13T06:27:28.315Z,21.88
2018-11-13T06:29:56.392Z,21.89
2018-11-13T06:32:24.469Z,21.89
2018-11-13T06:34:52.499Z,21.88
2018-11-13T06:37:20.551Z,21.87
2018-11-13T06:39:48.594Z,21.88
2018-11-13T06:42:16.625Z,21.88
2018-11-13T06:44:44.715Z,21.87
2018-11-13T06:47:12.766Z,21.87
2018-11-13T06:49:40.848Z,21.86
2018-11-13T06:52:08.895Z,21.85
2018-11-13T06:54:54.803Z,21.85
2018-11-13T06:57:22.942Z,21.86
2018-11-13T06:59:51.059Z,21.85
2018-11-13T07:02:19.186Z,21.84
2018-11-13T07:04:47.347Z,21.83
2018-11-13T07:07:15.386Z,21.84
2018-11-13T07:09:43.426Z,21.82
2018-11-13T07:12:11.486Z,21.82
2018-11-13T07:14:39.531Z,21.82
2018-11-13T07:17:07.659Z,21.82
2018-11-13T07:19:35.739Z,21.81
2018-11-13T07:22:03.770Z,21.81
2018-11-13T07:24:31.944Z,21.80
2018-11-13T07:27:00.144Z,21.79
2018-11-13T07:29:28.270Z,21.80
2018-11-13T07:31:56.440Z,21.80
2018-11-13T07:34:24.835Z,21.80
2018-11-13T07:36:53.573Z,21.80
2018-11-13T07:39:21.912Z,21.80
2018-11-13T07:41:50.023Z,21.81
2018-11-13T07:44:18.212Z,21.83
2018-11-13T07:46:46.441Z,21.82
2018-11-13T07:49:14.596Z,21.84
2018-11-13T07:51:42.795Z,21.85
2018-11-13T07:54:10.930Z,21.87
2018-11-13T07:56:39.957Z,21.92
2018-11-13T07:59:08.201Z,21.98
2018-11-13T08:01:36.334Z,22.03
2018-11-13T08:04:04.680Z,22.10
2018-11-13T08:06:32.991Z,22.11
2018-11-13T08:09:01.094Z,22.10
2018-11-13T08:11:29.238Z,22.12
2018-11-13T08:13:57.331Z,22.13
2018-11-13T08:16:25.702Z,22.14
2018-11-13T08:18:53.809Z,22.17
2018-11-13T08:21:21.788Z,22.23
2018-11-13T08:23:49.930Z,22.26
2018-11-13T08:26:18.244Z,22.29
2018-11-13T08:28:46.456Z,22.32
2018-11-13T08:31:14.508Z,22.34
2018-11-13T08:33:43.038Z,22.35
2018-11-13T08:36:11.236Z,22.36
2018-11-13T08:38:39.390Z,22.37
2018-11-13T08:41:07.984Z,22.39
2018-11-13T08:43:36.158Z,22.42
2018-11-13T08:46:04.596Z,22.44
2018-11-13T08:48:32.751Z,22.45
2018-11-13T08:51:00.858Z,22.45
2018-11-13T08:53:28.992Z,22.47
2018-11-13T08:55:57.146Z,22.46
2018-11-13T08:58:25.374Z,22.49
2018-11-13T09:00:53.598Z,22.49
2018-11-13T09:03:21.772Z,22.51
2018-11-13T09:05:49.938Z,22.50
2018-11-13T09:08:18.088Z,22.51
2018-11-13T09:10:46.238Z,22.52
2018-11-13T09:13:14.667Z,22.54
2018-11-13T09:15:42.807Z,22.55
2018-11-13T09:18:11.075Z,22.55
2018-11-13T09:20:39.256Z,22.57
2018-11-13T09:23:07.448Z,22.56
2018-11-13T09:25:35.621Z,22.56
2018-11-13T09:28:03.789Z,22.57
2018-11-13T09:30:32.099Z,22.58
2018-11-13T09:33:00.047Z,22.60
2018-11-13T09:35:28.231Z,22.66
2018-11-13T09:37:56.369Z,22.68
2018-11-13T09:40:24.527Z,22.71
2018-11-13T09:42:52.755Z,22.71
2018-11-13T09:45:20.913Z,22.72
2018-11-13T09:47:49.197Z,22.73
2018-11-13T09:50:18.759Z,22.75
2018-11-13T09:52:48.558Z,22.73
2018-11-13T09:55:18.732Z,22.74
2018-11-13T09:57:47.734Z,22.75
2018-11-13T10:00:18.742Z,22.77
2018-11-13T10:02:51.618Z,22.79
2018-11-13T10:05:20.171Z,22.78
2018-11-13T10:07:48.855Z,22.80
2018-11-13T10:10:17.022Z,22.81
2018-11-13T10:12:45.086Z,22.83
2018-11-13T10:15:16.101Z,22.86
2018-11-13T10:17:44.316Z,22.89
2018-11-13T10:20:13.686Z,22.92
2018-11-13T10:22:43.002Z,22.96
2018-11-13T10:25:11.973Z,22.96
2018-11-13T10:27:40.529Z,22.97
2018-11-13T10:30:10.906Z,22.98
2018-11-13T10:32:39.187Z,22.95
2018-11-13T10:35:08.451Z,22.95
2018-11-13T10:37:36.939Z,22.95
2018-11-13T10:40:05.845Z,22.95
2018-11-13T10:42:33.854Z,22.95
2018-11-13T10:45:01.913Z,22.97
2018-11-13T10:47:29.947Z,22.98
2018-11-13T10:49:58.035Z,22.98
2018-11-13T10:52:26.374Z,22.97
2018-11-13T10:54:54.422Z,23.01
2018-11-13T10:57:22.827Z,23.03
2018-11-13T10:59:51.088Z,23.03
2018-11-13T11:02:24.446Z,23.04
2018-11-13T11:04:53.261Z,23.09
2018-11-13T11:07:21.395Z,23.13
2018-11-13T11:09:49.414Z,23.18
2018-11-13T11:12:17.446Z,23.23
2018-11-13T11:14:45.511Z,23.27
2018-11-13T11:17:13.539Z,23.32
2018-11-13T11:19:41.633Z,23.37
2018-11-13T11:22:09.679Z,23.36
2018-11-13T11:24:37.699Z,23.37
2018-11-13T11:27:05.726Z,23.36
2018-11-13T11:29:33.758Z,23.36
2018-11-13T11:32:01.803Z,23.37
2018-11-13T11:34:29.822Z,23.37
2018-11-13T11:36:57.847Z,23.37
2018-11-13T11:39:25.987Z,23.38
2018-11-13T11:41:54.016Z,23.44
2018-11-13T11:44:22.078Z,23.47
2018-11-13T11:46:50.087Z,23.50
2018-11-13T11:49:18.118Z,23.56
2018-11-13T11:51:46.146Z,23.58
2018-11-13T11:54:14.248Z,23.61
2018-11-13T11:56:42.327Z,23.64
2018-11-13T11:59:10.387Z,23.67
2018-11-13T12:01:38.426Z,23.70
2018-11-13T12:04:06.488Z,23.72
2018-11-13T12:06:34.534Z,23.75
2018-11-13T12:09:02.560Z,23.78
2018-11-13T12:11:30.594Z,23.73
2018-11-13T12:13:58.626Z,23.83
2018-11-13T12:16:26.661Z,23.85
2018-11-13T12:18:54.708Z,23.86
2018-11-13T12:21:22.736Z,23.89
2018-11-13T12:23:50.755Z,23.91
2018-11-13T12:26:19.095Z,23.90
2018-11-13T12:28:47.114Z,23.91
2018-11-13T12:31:15.138Z,23.89
2018-11-13T12:33:43.162Z,23.89
2018-11-13T12:36:11.203Z,23.90
2018-11-13T12:38:39.327Z,23.89
2018-11-13T12:41:07.394Z,23.90
2018-11-13T12:43:35.501Z,23.90
2018-11-13T12:46:03.547Z,23.91
2018-11-13T12:48:31.636Z,23.90
2018-11-13T12:51:04.794Z,23.90
2018-11-13T12:53:33.366Z,23.90
2018-11-13T12:56:01.860Z,23.89
2018-11-13T12:58:30.694Z,23.88
2018-11-13T13:00:58.704Z,23.83
2018-11-13T13:03:26.729Z,23.86
2018-11-13T13:05:54.794Z,23.85
2018-11-13T13:08:22.848Z,23.85
2018-11-13T13:10:50.903Z,23.84
2018-11-13T13:13:18.978Z,23.84
2018-11-13T13:15:47.048Z,23.83
2018-11-13T13:18:15.103Z,23.81
2018-11-13T13:20:43.130Z,23.80
2018-11-13T13:23:11.262Z,23.80
2018-11-13T13:25:39.328Z,23.78
2018-11-13T13:28:07.418Z,23.75
2018-11-13T13:30:35.485Z,23.75
2018-11-13T13:33:03.536Z,23.75
2018-11-13T13:35:50.354Z,23.74
2018-11-13T13:38:18.391Z,23.73
2018-11-13T13:40:47.845Z,23.69
2018-11-13T13:43:16.351Z,23.68
2018-11-13T13:45:45.342Z,23.68
2018-11-13T13:48:13.382Z,23.67
2018-11-13T13:50:41.402Z,23.66
2018-11-13T13:53:10.471Z,23.65
2018-11-13T13:55:38.615Z,23.63
2018-11-13T13:58:06.858Z,23.62
2018-11-13T14:00:34.945Z,23.60
2018-11-13T14:03:02.948Z,23.59
2018-11-13T14:05:30.994Z,23.59
2018-11-13T14:07:59.040Z,23.57
2018-11-13T14:10:27.063Z,23.56
2018-11-13T14:12:55.098Z,23.54
2018-11-13T14:15:23.186Z,23.53
2018-11-13T14:17:51.169Z,23.52
2018-11-13T14:20:20.262Z,23.49
2018-11-13T14:22:48.323Z,23.47
2018-11-13T14:25:16.392Z,23.45
2018-11-13T14:27:44.718Z,23.44
2018-11-13T14:30:17.540Z,23.42
2018-11-13T14:32:46.423Z,23.42
2018-11-13T14:35:14.801Z,23.40
2018-11-13T14:37:42.907Z,23.40
2018-11-13T14:40:15.663Z,23.36
2018-11-13T14:42:44.435Z,23.35
2018-11-13T14:45:12.506Z,23.32
2018-11-13T14:47:41.502Z,23.33
2018-11-13T14:52:38.058Z,23.29
2018-11-13T14:55:08.410Z,23.28
2018-11-13T14:57:36.419Z,23.25
2018-11-13T15:00:05.795Z,23.25
2018-11-13T15:02:33.842Z,23.23
2018-11-13T15:05:02.023Z,23.22
2018-11-13T15:07:30.083Z,23.21
2018-11-13T15:09:58.174Z,23.19
2018-11-13T15:12:26.227Z,23.17
2018-11-13T15:14:54.258Z,23.16
2018-11-13T15:17:22.380Z,23.15
2018-11-13T15:19:50.433Z,23.14
2018-11-13T15:22:18.569Z,23.12
2018-11-13T15:24:46.898Z,23.10
2018-11-13T15:27:14.947Z,23.08
2018-11-13T15:29:43.012Z,23.07
2018-11-13T15:32:11.022Z,23.07
2018-11-13T15:34:39.139Z,23.05
2018-11-13T15:37:07.251Z,23.04
2018-11-13T15:39:35.283Z,23.02
2018-11-13T15:42:03.386Z,23.02
2018-11-13T15:44:31.484Z,23.01
2018-11-13T15:46:59.503Z,22.98
2018-11-13T15:49:27.539Z,22.98
2018-11-13T15:51:55.702Z,22.97
2018-11-13T15:54:23.732Z,22.95
2018-11-13T15:56:51.879Z,22.94
2018-11-13T15:59:20.012Z,22.94
2018-11-13T16:01:48.020Z,22.92
2018-11-13T16:04:16.107Z,22.91
2018-11-13T16:06:44.260Z,22.90
2018-11-13T16:09:12.294Z,22.89
2018-11-13T16:11:40.367Z,22.87
2018-11-13T16:14:08.426Z,22.86
2018-11-13T16:16:36.454Z,22.85
2018-11-13T16:19:04.578Z,22.84
2018-11-13T16:21:32.639Z,22.80
2018-11-13T16:24:00.646Z,22.80
2018-11-13T16:26:28.664Z,22.78
2018-11-13T16:28:56.687Z,22.77
2018-11-13T16:31:24.768Z,22.75
2018-11-13T16:33:52.758Z,22.73
2018-11-13T16:36:20.989Z,22.72
2018-11-13T16:38:49.015Z,22.69
2018-11-13T16:41:17.094Z,22.68
2018-11-13T16:43:45.167Z,22.67
2018-11-13T16:46:13.210Z,22.66
2018-11-13T16:48:41.542Z,22.63
2018-11-13T16:51:09.614Z,22.63
2018-11-13T16:53:43.012Z,22.61
2018-11-13T16:56:10.974Z,22.59
2018-11-13T16:58:39.058Z,22.58
2018-11-13T17:01:07.213Z,22.57
2018-11-13T17:03:35.407Z,22.57
2018-11-13T17:06:03.444Z,22.55
2018-11-13T17:08:31.455Z,22.54
2018-11-13T17:10:59.568Z,22.53
2018-11-13T17:13:27.646Z,22.52
2018-11-13T17:15:55.685Z,22.51
2018-11-13T17:18:23.774Z,22.51
2018-11-13T17:20:51.859Z,22.50
2018-11-13T17:23:19.984Z,22.48
2018-11-13T17:25:48.063Z,22.50
2018-11-13T17:28:16.070Z,22.48
2018-11-13T17:30:44.143Z,22.47
2018-11-13T17:33:12.254Z,22.47
2018-11-13T17:35:40.494Z,22.46
2018-11-13T17:38:08.628Z,22.47
2018-11-13T17:40:37.315Z,22.46
2018-11-13T17:43:06.485Z,22.45
2018-11-13T17:45:35.774Z,22.45
2018-11-13T17:48:03.883Z,22.45
2018-11-13T17:50:33.211Z,22.45
2018-11-13T17:53:01.407Z,22.44
2018-11-13T17:55:29.511Z,22.44
2018-11-13T17:57:59.174Z,22.43
2018-11-13T18:00:31.172Z,22.42
2018-11-13T18:02:59.554Z,22.42
2018-11-13T18:05:28.067Z,22.42
2018-11-13T18:07:57.209Z,22.42
2018-11-13T18:10:25.691Z,22.41
2018-11-13T18:12:53.720Z,22.41
2018-11-13T18:15:23.035Z,22.40
2018-11-13T18:17:51.347Z,22.40
2018-11-13T18:20:20.839Z,22.39
2018-11-13T18:22:48.931Z,22.39
2018-11-13T18:25:16.976Z,22.39
2018-11-13T18:27:47.421Z,22.38
2018-11-13T18:30:24.279Z,22.38
2018-11-13T18:32:52.739Z,22.37
2018-11-13T18:35:22.203Z,22.36
2018-11-13T18:37:51.045Z,22.36
2018-11-13T18:40:20.028Z,22.36
2018-11-13T18:42:49.051Z,22.37
2018-11-13T18:45:27.070Z,22.36
2018-11-13T18:47:55.166Z,22.35
2018-11-13T18:50:25.577Z,22.35
2018-11-13T18:52:53.663Z,22.34
2018-11-13T18:55:21.770Z,22.37
2018-11-13T18:57:49.855Z,22.34
2018-11-13T19:00:25.514Z,22.34
2018-11-13T19:02:53.561Z,22.31
2018-11-13T19:05:22.168Z,22.32
2018-11-13T19:07:50.322Z,22.32
2018-11-13T19:10:26.749Z,22.32
2018-11-13T19:12:56.048Z,22.31
2018-11-13T19:15:24.112Z,22.33
2018-11-13T19:17:52.672Z,22.34
2018-11-13T19:20:21.740Z,22.34
2018-11-13T19:22:49.710Z,22.34
2018-11-13T19:25:19.209Z,22.35
2018-11-13T19:27:47.806Z,22.34
2018-11-13T19:30:17.046Z,22.33
2018-11-13T19:32:45.075Z,22.32
2018-11-13T19:35:13.627Z,22.32
2018-11-13T19:37:41.812Z,22.31
2018-11-13T19:40:12.466Z,22.30
2018-11-13T19:42:40.564Z,22.30
2018-11-13T19:45:08.986Z,22.30
2018-11-13T19:47:37.781Z,22.28
2018-11-13T19:50:07.534Z,22.28
2018-11-13T19:52:35.619Z,22.27
2018-11-13T19:55:03.850Z,22.26
2018-11-13T19:57:31.946Z,22.24
2018-11-13T19:59:59.994Z,22.25
2018-11-13T20:05:18.215Z,22.22
2018-11-13T20:07:46.446Z,22.22
2018-11-13T20:10:17.417Z,22.20
2018-11-13T20:12:46.810Z,22.20
2018-11-13T20:15:15.263Z,22.20
2018-11-13T20:17:43.396Z,22.19
2018-11-13T20:20:14.988Z,22.18
2018-11-13T20:22:43.538Z,22.18
2018-11-13T20:25:20.158Z,22.19
2018-11-13T20:27:48.225Z,22.18
2018-11-13T20:30:26.503Z,22.16
2018-11-13T20:32:54.740Z,22.17
2018-11-13T20:35:22.968Z,22.16
2018-11-13T20:37:51.634Z,22.16
2018-11-13T20:40:20.931Z,22.16
2018-11-13T20:42:50.259Z,22.14
2018-11-13T20:45:18.436Z,22.14
2018-11-13T20:47:46.515Z,22.13
2018-11-13T20:50:16.214Z,22.12
2018-11-13T20:52:44.387Z,22.11
2018-11-13T20:55:12.610Z,22.10
2018-11-13T20:57:40.763Z,22.09
2018-11-13T21:00:12.537Z,22.09
2018-11-13T21:02:40.555Z,22.06
2018-11-13T21:05:08.734Z,22.07
2018-11-13T21:07:37.114Z,22.04
2018-11-13T21:10:07.183Z,22.05
2018-11-13T21:12:35.250Z,22.02
2018-11-13T21:15:03.395Z,22.02
2018-11-13T21:17:31.622Z,22.01
2018-11-13T21:19:59.558Z,21.99
2018-11-13T21:22:27.639Z,21.97
2018-11-13T21:24:55.823Z,21.97
2018-11-13T21:27:23.875Z,21.96
2018-11-13T21:29:52.088Z,21.94
2018-11-13T21:32:20.185Z,21.92
2018-11-13T21:34:48.291Z,21.91
2018-11-13T21:37:16.437Z,21.89
2018-11-13T21:39:44.446Z,21.88
2018-11-13T21:42:12.490Z,21.87
2018-11-13T21:44:41.511Z,21.86
2018-11-13T21:47:09.601Z,21.84
2018-11-13T21:49:37.784Z,21.82
2018-11-13T21:52:05.816Z,21.82
2018-11-13T21:54:33.874Z,21.80
2018-11-13T21:57:01.915Z,21.78
2018-11-13T21:59:29.982Z,21.76
2018-11-13T22:01:58.094Z,21.75
2018-11-13T22:04:26.180Z,21.74
2018-11-13T22:06:54.238Z,21.73
2018-11-13T22:09:22.327Z,21.71
2018-11-13T22:11:50.473Z,21.69
2018-11-13T22:14:18.650Z,21.66
2018-11-13T22:16:46.695Z,21.65
2018-11-13T22:19:14.689Z,21.65
2018-11-13T22:21:42.766Z,21.64
2018-11-13T22:24:10.820Z,21.61
2018-11-13T22:26:38.901Z,21.61
2018-11-13T22:29:07.068Z,21.60
2018-11-13T22:31:35.042Z,21.59
2018-11-13T22:34:03.154Z,21.58
2018-11-13T22:36:31.211Z,21.57
2018-11-13T22:38:59.336Z,21.55
2018-11-13T22:41:27.331Z,21.54
2018-11-13T22:43:55.415Z,21.53
2018-11-13T22:46:23.488Z,21.52
2018-11-13T22:48:51.585Z,21.52
2018-11-13T22:51:19.647Z,21.51
2018-11-13T22:53:47.731Z,21.49
2018-11-13T22:56:15.887Z,21.49
2018-11-13T22:58:43.991Z,21.48
2018-11-13T23:01:12.171Z,21.47
2018-11-13T23:03:40.150Z,21.47
2018-11-13T23:06:08.223Z,21.46
2018-11-13T23:08:36.291Z,21.46
2018-11-13T23:11:09.714Z,21.45
2018-11-13T23:13:37.775Z,21.44
2018-11-13T23:16:06.264Z,21.43
2018-11-13T23:18:34.338Z,21.42
2018-11-13T23:21:02.446Z,21.43
2018-11-13T23:23:30.526Z,21.41
2018-11-13T23:25:58.586Z,21.42
2018-11-13T23:28:26.730Z,21.41
2018-11-13T23:30:54.762Z,21.41
2018-11-13T23:33:22.831Z,21.41
2018-11-13T23:35:51.676Z,21.40
2018-11-13T23:38:19.748Z,21.39
2018-11-13T23:40:47.770Z,21.39
2018-11-13T23:43:15.807Z,21.39
2018-11-13T23:45:43.850Z,21.38
2018-11-13T23:48:11.875Z,21.38
2018-11-13T23:50:39.945Z,21.37
2018-11-13T23:53:08.099Z,21.37
2018-11-13T23:55:36.188Z,21.36
2018-11-13T23:58:04.250Z,21.36
